sensor_id;sensor_type;location;lat;lon;timestamp;P1;durP1;ratioP1;P2;durP2;ratioP2
30613;SDS011;17381;51.690;5.270;2023-05-10T00:00:39;14.60;;;9.85;;
30613;SDS011;17381;51.690;5.270;2023-05-10T00:03:35;16.23;;;10.18;;
30613;SDS011;17381;51.690;5.270;2023-05-10T00:06:39;18.33;;;11.57;;
30613;SDS011;17381;51.690;5.270;2023-05-10T00:09:20;15.95;;;10.35;;
30613;SDS011;17381;51.690;5.270;2023-05-10T00:12:00;15.35;;;10.35;;
30613;SDS011;17381;51.690;5.270;2023-05-10T00:14:48;18.30;;;11.70;;
30613;SDS011;17381;51.690;5.270;2023-05-10T00:17:43;17.65;;;11.20;;
30613;SDS011;17381;51.690;5.270;2023-05-10T00:20:29;17.63;;;10.98;;
30613;SDS011;17381;51.690;5.270;2023-05-10T00:23:05;16.20;;;10.27;;
30613;SDS011;17381;51.690;5.270;2023-05-10T00:26:09;14.95;;;9.70;;
30613;SDS011;17381;51.690;5.270;2023-05-10T00:29:00;13.63;;;9.50;;
30613;SDS011;17381;51.690;5.270;2023-05-10T00:32:01;14.80;;;9.70;;
30613;SDS011;17381;51.690;5.270;2023-05-10T00:34:53;14.77;;;9.40;;
30613;SDS011;17381;51.690;5.270;2023-05-10T00:37:46;15.23;;;10.10;;
30613;SDS011;17381;51.690;5.270;2023-05-10T00:40:49;16.30;;;10.27;;
30613;SDS011;17381;51.690;5.270;2023-05-10T00:43:43;16.55;;;10.20;;
30613;SDS011;17381;51.690;5.270;2023-05-10T00:46:14;15.05;;;9.23;;
30613;SDS011;17381;51.690;5.270;2023-05-10T00:49:03;16.10;;;10.13;;
30613;SDS011;17381;51.690;5.270;2023-05-10T00:52:02;16.05;;;9.23;;
30613;SDS011;17381;51.690;5.270;2023-05-10T00:55:12;19.88;;;9.98;;
30613;SDS011;17381;51.690;5.270;2023-05-10T00:57:59;14.13;;;9.18;;
30613;SDS011;17381;51.690;5.270;2023-05-10T01:01:24;17.40;;;9.45;;
30613;SDS011;17381;51.690;5.270;2023-05-10T01:04:19;16.45;;;9.70;;
30613;SDS011;17381;51.690;5.270;2023-05-10T01:10:15;15.48;;;9.32;;
30613;SDS011;17381;51.690;5.270;2023-05-10T01:13:00;17.95;;;9.75;;
30613;SDS011;17381;51.690;5.270;2023-05-10T01:16:01;17.88;;;9.98;;
30613;SDS011;17381;51.690;5.270;2023-05-10T01:18:55;17.67;;;10.23;;
30613;SDS011;17381;51.690;5.270;2023-05-10T01:22:15;18.67;;;11.05;;
30613;SDS011;17381;51.690;5.270;2023-05-10T01:25:16;20.05;;;11.48;;
30613;SDS011;17381;51.690;5.270;2023-05-10T01:35:22;19.00;;;9.88;;
30613;SDS011;17381;51.690;5.270;2023-05-10T01:38:21;17.55;;;10.48;;
30613;SDS011;17381;51.690;5.270;2023-05-10T01:41:53;17.83;;;9.65;;
30613;SDS011;17381;51.690;5.270;2023-05-10T01:45:01;17.10;;;9.63;;
30613;SDS011;17381;51.690;5.270;2023-05-10T01:48:18;17.38;;;10.20;;
30613;SDS011;17381;51.690;5.270;2023-05-10T01:51:18;18.50;;;10.65;;
30613;SDS011;17381;51.690;5.270;2023-05-10T01:54:21;18.27;;;10.48;;
30613;SDS011;17381;51.690;5.270;2023-05-10T01:57:02;17.85;;;11.00;;
30613;SDS011;17381;51.690;5.270;2023-05-10T02:00:03;16.98;;;9.90;;
30613;SDS011;17381;51.690;5.270;2023-05-10T02:03:14;16.92;;;9.48;;
30613;SDS011;17381;51.690;5.270;2023-05-10T02:06:13;15.97;;;9.60;;
30613;SDS011;17381;51.690;5.270;2023-05-10T02:09:16;12.63;;;7.70;;
30613;SDS011;17381;51.690;5.270;2023-05-10T02:15:29;15.60;;;10.00;;
30613;SDS011;17381;51.690;5.270;2023-05-10T02:18:30;14.10;;;8.90;;
30613;SDS011;17381;51.690;5.270;2023-05-10T02:21:26;14.70;;;9.43;;
30613;SDS011;17381;51.690;5.270;2023-05-10T02:24:30;11.93;;;8.05;;
30613;SDS011;17381;51.690;5.270;2023-05-10T02:27:36;13.27;;;8.23;;
30613;SDS011;17381;51.690;5.270;2023-05-10T02:30:35;15.13;;;9.63;;
30613;SDS011;17381;51.690;5.270;2023-05-10T02:33:33;14.50;;;8.80;;
30613;SDS011;17381;51.690;5.270;2023-05-10T02:36:45;16.52;;;10.48;;
30613;SDS011;17381;51.690;5.270;2023-05-10T02:39:52;18.77;;;11.27;;
30613;SDS011;17381;51.690;5.270;2023-05-10T02:42:41;17.67;;;11.55;;
30613;SDS011;17381;51.690;5.270;2023-05-10T02:45:30;17.63;;;11.27;;
30613;SDS011;17381;51.690;5.270;2023-05-10T02:48:40;19.25;;;12.25;;
30613;SDS011;17381;51.690;5.270;2023-05-10T02:51:20;19.40;;;12.13;;
30613;SDS011;17381;51.690;5.270;2023-05-10T02:54:10;19.42;;;12.45;;
30613;SDS011;17381;51.690;5.270;2023-05-10T02:57:21;21.77;;;12.13;;
30613;SDS011;17381;51.690;5.270;2023-05-10T03:00:08;21.50;;;12.70;;
30613;SDS011;17381;51.690;5.270;2023-05-10T03:02:42;22.20;;;14.98;;
30613;SDS011;17381;51.690;5.270;2023-05-10T03:05:34;21.90;;;13.32;;
30613;SDS011;17381;51.690;5.270;2023-05-10T03:08:39;21.38;;;12.75;;
30613;SDS011;17381;51.690;5.270;2023-05-10T03:11:45;22.63;;;14.68;;
30613;SDS011;17381;51.690;5.270;2023-05-10T03:21:38;22.08;;;13.27;;
30613;SDS011;17381;51.690;5.270;2023-05-10T03:25:07;23.17;;;14.70;;
30613;SDS011;17381;51.690;5.270;2023-05-10T03:28:04;23.23;;;15.30;;
30613;SDS011;17381;51.690;5.270;2023-05-10T03:30:52;24.10;;;16.27;;
30613;SDS011;17381;51.690;5.270;2023-05-10T03:33:56;28.10;;;17.73;;
30613;SDS011;17381;51.690;5.270;2023-05-10T03:36:43;25.63;;;16.42;;
30613;SDS011;17381;51.690;5.270;2023-05-10T03:39:53;30.77;;;18.17;;
30613;SDS011;17381;51.690;5.270;2023-05-10T03:42:49;27.65;;;17.55;;
30613;SDS011;17381;51.690;5.270;2023-05-10T03:45:32;26.13;;;16.45;;
30613;SDS011;17381;51.690;5.270;2023-05-10T03:49:03;29.83;;;17.25;;
30613;SDS011;17381;51.690;5.270;2023-05-10T03:54:22;25.48;;;16.55;;
30613;SDS011;17381;51.690;5.270;2023-05-10T04:00:26;28.15;;;16.67;;
30613;SDS011;17381;51.690;5.270;2023-05-10T04:03:42;26.02;;;15.00;;
30613;SDS011;17381;51.690;5.270;2023-05-10T04:06:24;25.38;;;14.88;;
30613;SDS011;17381;51.690;5.270;2023-05-10T04:12:33;25.55;;;15.20;;
30613;SDS011;17381;51.690;5.270;2023-05-10T04:15:26;30.55;;;18.52;;
30613;SDS011;17381;51.690;5.270;2023-05-10T04:18:20;28.33;;;16.15;;
30613;SDS011;17381;51.690;5.270;2023-05-10T04:21:18;26.90;;;16.35;;
30613;SDS011;17381;51.690;5.270;2023-05-10T04:24:08;28.63;;;16.77;;
30613;SDS011;17381;51.690;5.270;2023-05-10T04:26:59;25.25;;;15.88;;
30613;SDS011;17381;51.690;5.270;2023-05-10T04:30:01;23.42;;;15.52;;
30613;SDS011;17381;51.690;5.270;2023-05-10T04:36:05;26.55;;;16.23;;
30613;SDS011;17381;51.690;5.270;2023-05-10T04:39:01;23.30;;;15.52;;
30613;SDS011;17381;51.690;5.270;2023-05-10T04:41:57;27.08;;;15.63;;
30613;SDS011;17381;51.690;5.270;2023-05-10T04:44:48;24.45;;;15.55;;
30613;SDS011;17381;51.690;5.270;2023-05-10T04:47:41;23.25;;;15.05;;
30613;SDS011;17381;51.690;5.270;2023-05-10T04:50:23;24.83;;;17.20;;
30613;SDS011;17381;51.690;5.270;2023-05-10T04:53:12;24.55;;;15.35;;
30613;SDS011;17381;51.690;5.270;2023-05-10T04:55:53;23.73;;;16.13;;
30613;SDS011;17381;51.690;5.270;2023-05-10T04:58:33;22.10;;;15.27;;
30613;SDS011;17381;51.690;5.270;2023-05-10T05:01:32;23.00;;;16.02;;
30613;SDS011;17381;51.690;5.270;2023-05-10T05:04:28;23.25;;;15.98;;
30613;SDS011;17381;51.690;5.270;2023-05-10T05:07:38;23.75;;;14.95;;
30613;SDS011;17381;51.690;5.270;2023-05-10T05:10:40;21.63;;;14.95;;
30613;SDS011;17381;51.690;5.270;2023-05-10T05:13:35;24.42;;;16.30;;
30613;SDS011;17381;51.690;5.270;2023-05-10T05:16:22;23.73;;;15.70;;
30613;SDS011;17381;51.690;5.270;2023-05-10T05:19:17;28.27;;;18.40;;
30613;SDS011;17381;51.690;5.270;2023-05-10T05:22:20;25.77;;;15.98;;
30613;SDS011;17381;51.690;5.270;2023-05-10T05:25:28;24.02;;;15.85;;
30613;SDS011;17381;51.690;5.270;2023-05-10T05:28:30;22.88;;;15.35;;
30613;SDS011;17381;51.690;5.270;2023-05-10T05:31:37;21.63;;;14.35;;
30613;SDS011;17381;51.690;5.270;2023-05-10T05:37:20;22.75;;;14.80;;
30613;SDS011;17381;51.690;5.270;2023-05-10T05:40:30;21.88;;;14.85;;
30613;SDS011;17381;51.690;5.270;2023-05-10T05:43:47;20.40;;;13.70;;
30613;SDS011;17381;51.690;5.270;2023-05-10T05:46:41;20.25;;;13.77;;
30613;SDS011;17381;51.690;5.270;2023-05-10T05:49:37;17.63;;;12.27;;
30613;SDS011;17381;51.690;5.270;2023-05-10T05:52:37;19.20;;;12.63;;
30613;SDS011;17381;51.690;5.270;2023-05-10T05:55:34;21.80;;;13.93;;
30613;SDS011;17381;51.690;5.270;2023-05-10T05:58:34;21.25;;;14.60;;
30613;SDS011;17381;51.690;5.270;2023-05-10T06:01:42;19.45;;;12.35;;
30613;SDS011;17381;51.690;5.270;2023-05-10T06:04:26;19.25;;;12.68;;
30613;SDS011;17381;51.690;5.270;2023-05-10T06:07:24;22.05;;;14.25;;
30613;SDS011;17381;51.690;5.270;2023-05-10T06:10:11;21.40;;;14.10;;
30613;SDS011;17381;51.690;5.270;2023-05-10T06:13:18;22.67;;;13.82;;
30613;SDS011;17381;51.690;5.270;2023-05-10T06:16:39;18.13;;;12.80;;
30613;SDS011;17381;51.690;5.270;2023-05-10T06:19:23;19.77;;;12.05;;
30613;SDS011;17381;51.690;5.270;2023-05-10T06:22:21;21.42;;;13.13;;
30613;SDS011;17381;51.690;5.270;2023-05-10T06:25:08;19.90;;;12.55;;
30613;SDS011;17381;51.690;5.270;2023-05-10T06:27:55;20.70;;;12.85;;
30613;SDS011;17381;51.690;5.270;2023-05-10T06:30:43;23.35;;;14.68;;
30613;SDS011;17381;51.690;5.270;2023-05-10T06:33:46;24.63;;;14.73;;
30613;SDS011;17381;51.690;5.270;2023-05-10T06:36:22;20.25;;;13.48;;
30613;SDS011;17381;51.690;5.270;2023-05-10T06:39:18;26.58;;;15.88;;
30613;SDS011;17381;51.690;5.270;2023-05-10T06:41:53;29.63;;;18.88;;
30613;SDS011;17381;51.690;5.270;2023-05-10T06:44:48;29.55;;;18.33;;
30613;SDS011;17381;51.690;5.270;2023-05-10T06:47:31;28.67;;;16.88;;
30613;SDS011;17381;51.690;5.270;2023-05-10T06:50:14;26.17;;;17.55;;
30613;SDS011;17381;51.690;5.270;2023-05-10T06:52:58;26.38;;;17.35;;
30613;SDS011;17381;51.690;5.270;2023-05-10T06:55:50;25.10;;;16.05;;
30613;SDS011;17381;51.690;5.270;2023-05-10T06:58:31;23.30;;;15.45;;
30613;SDS011;17381;51.690;5.270;2023-05-10T07:01:03;21.05;;;14.02;;
30613;SDS011;17381;51.690;5.270;2023-05-10T07:03:38;20.38;;;13.57;;
30613;SDS011;17381;51.690;5.270;2023-05-10T07:06:17;18.95;;;11.95;;
30613;SDS011;17381;51.690;5.270;2023-05-10T07:11:23;24.55;;;12.43;;
30613;SDS011;17381;51.690;5.270;2023-05-10T07:14:00;20.27;;;12.27;;
30613;SDS011;17381;51.690;5.270;2023-05-10T07:16:52;19.30;;;11.45;;
30613;SDS011;17381;51.690;5.270;2023-05-10T07:19:26;22.63;;;13.77;;
30613;SDS011;17381;51.690;5.270;2023-05-10T07:22:01;21.50;;;13.32;;
30613;SDS011;17381;51.690;5.270;2023-05-10T07:24:31;21.50;;;14.13;;
30613;SDS011;17381;51.690;5.270;2023-05-10T07:27:08;20.42;;;13.80;;
30613;SDS011;17381;51.690;5.270;2023-05-10T07:29:37;23.73;;;14.27;;
30613;SDS011;17381;51.690;5.270;2023-05-10T07:32:12;22.17;;;13.75;;
30613;SDS011;17381;51.690;5.270;2023-05-10T07:35:01;24.30;;;15.50;;
30613;SDS011;17381;51.690;5.270;2023-05-10T07:37:26;27.42;;;15.10;;
30613;SDS011;17381;51.690;5.270;2023-05-10T07:40:07;20.83;;;12.73;;
30613;SDS011;17381;51.690;5.270;2023-05-10T07:42:51;20.52;;;13.63;;
30613;SDS011;17381;51.690;5.270;2023-05-10T07:47:57;22.67;;;14.60;;
30613;SDS011;17381;51.690;5.270;2023-05-10T07:50:24;22.73;;;14.15;;
30613;SDS011;17381;51.690;5.270;2023-05-10T07:53:11;24.52;;;13.70;;
30613;SDS011;17381;51.690;5.270;2023-05-10T07:55:51;20.60;;;13.18;;
30613;SDS011;17381;51.690;5.270;2023-05-10T07:58:25;23.33;;;13.80;;
30613;SDS011;17381;51.690;5.270;2023-05-10T08:01:09;21.92;;;13.60;;
30613;SDS011;17381;51.690;5.270;2023-05-10T08:03:55;22.20;;;14.73;;
30613;SDS011;17381;51.690;5.270;2023-05-10T08:06:27;23.10;;;14.68;;
30613;SDS011;17381;51.690;5.270;2023-05-10T08:09:09;20.73;;;13.88;;
30613;SDS011;17381;51.690;5.270;2023-05-10T08:11:43;18.70;;;12.32;;
30613;SDS011;17381;51.690;5.270;2023-05-10T08:14:10;22.30;;;13.35;;
30613;SDS011;17381;51.690;5.270;2023-05-10T08:16:58;22.35;;;12.07;;
30613;SDS011;17381;51.690;5.270;2023-05-10T08:20:09;16.48;;;11.38;;
30613;SDS011;17381;51.690;5.270;2023-05-10T08:23:14;13.57;;;9.52;;
30613;SDS011;17381;51.690;5.270;2023-05-10T08:26:09;12.50;;;9.15;;
30613;SDS011;17381;51.690;5.270;2023-05-10T08:29:06;17.08;;;9.68;;
30613;SDS011;17381;51.690;5.270;2023-05-10T08:32:31;13.80;;;9.27;;
30613;SDS011;17381;51.690;5.270;2023-05-10T08:35:22;12.73;;;8.45;;
30613;SDS011;17381;51.690;5.270;2023-05-10T08:41:04;13.07;;;7.53;;
30613;SDS011;17381;51.690;5.270;2023-05-10T08:43:44;12.07;;;8.13;;
30613;SDS011;17381;51.690;5.270;2023-05-10T08:46:35;11.20;;;7.90;;
30613;SDS011;17381;51.690;5.270;2023-05-10T08:49:06;10.80;;;6.88;;
30613;SDS011;17381;51.690;5.270;2023-05-10T08:51:40;9.93;;;6.28;;
30613;SDS011;17381;51.690;5.270;2023-05-10T08:57:18;10.27;;;5.53;;
30613;SDS011;17381;51.690;5.270;2023-05-10T08:59:57;8.95;;;5.13;;
30613;SDS011;17381;51.690;5.270;2023-05-10T09:03:25;6.40;;;4.30;;
30613;SDS011;17381;51.690;5.270;2023-05-10T09:06:20;7.65;;;5.05;;
30613;SDS011;17381;51.690;5.270;2023-05-10T09:09:23;8.57;;;5.13;;
30613;SDS011;17381;51.690;5.270;2023-05-10T09:11:56;9.98;;;5.55;;
30613;SDS011;17381;51.690;5.270;2023-05-10T09:15:18;10.35;;;6.72;;
30613;SDS011;17381;51.690;5.270;2023-05-10T09:20:24;10.48;;;7.22;;
30613;SDS011;17381;51.690;5.270;2023-05-10T09:22:52;11.00;;;7.03;;
30613;SDS011;17381;51.690;5.270;2023-05-10T09:25:25;11.00;;;7.15;;
30613;SDS011;17381;51.690;5.270;2023-05-10T09:28:07;9.93;;;6.60;;
30613;SDS011;17381;51.690;5.270;2023-05-10T09:30:42;10.98;;;6.78;;
30613;SDS011;17381;51.690;5.270;2023-05-10T09:33:26;12.65;;;7.97;;
30613;SDS011;17381;51.690;5.270;2023-05-10T09:36:19;11.30;;;7.82;;
30613;SDS011;17381;51.690;5.270;2023-05-10T09:38:58;15.93;;;8.93;;
30613;SDS011;17381;51.690;5.270;2023-05-10T09:41:55;13.45;;;9.10;;
30613;SDS011;17381;51.690;5.270;2023-05-10T09:44:38;12.60;;;8.13;;
30613;SDS011;17381;51.690;5.270;2023-05-10T09:47:11;14.40;;;9.55;;
30613;SDS011;17381;51.690;5.270;2023-05-10T09:49:57;11.48;;;7.65;;
30613;SDS011;17381;51.690;5.270;2023-05-10T09:55:53;12.25;;;8.57;;
30613;SDS011;17381;51.690;5.270;2023-05-10T09:58:22;9.18;;;6.35;;
30613;SDS011;17381;51.690;5.270;2023-05-10T10:01:09;9.85;;;6.75;;
30613;SDS011;17381;51.690;5.270;2023-05-10T10:03:45;12.77;;;7.47;;
30613;SDS011;17381;51.690;5.270;2023-05-10T10:06:20;10.07;;;6.90;;
30613;SDS011;17381;51.690;5.270;2023-05-10T10:09:11;9.50;;;6.28;;
30613;SDS011;17381;51.690;5.270;2023-05-10T10:11:37;9.38;;;6.70;;
30613;SDS011;17381;51.690;5.270;2023-05-10T10:14:16;8.93;;;6.30;;
30613;SDS011;17381;51.690;5.270;2023-05-10T10:16:50;8.75;;;6.20;;
30613;SDS011;17381;51.690;5.270;2023-05-10T10:19:20;11.65;;;6.47;;
30613;SDS011;17381;51.690;5.270;2023-05-10T10:21:48;8.05;;;5.63;;
30613;SDS011;17381;51.690;5.270;2023-05-10T10:24:41;9.77;;;6.25;;
30613;SDS011;17381;51.690;5.270;2023-05-10T10:31:24;11.75;;;6.82;;
30613;SDS011;17381;51.690;5.270;2023-05-10T10:34:32;9.85;;;6.82;;
30613;SDS011;17381;51.690;5.270;2023-05-10T10:37:15;10.60;;;7.20;;
30613;SDS011;17381;51.690;5.270;2023-05-10T10:39:50;11.23;;;7.38;;
30613;SDS011;17381;51.690;5.270;2023-05-10T10:42:59;9.63;;;7.07;;
30613;SDS011;17381;51.690;5.270;2023-05-10T10:48:50;8.57;;;6.30;;
30613;SDS011;17381;51.690;5.270;2023-05-10T10:52:12;9.48;;;6.30;;
30613;SDS011;17381;51.690;5.270;2023-05-10T10:58:03;9.25;;;6.43;;
30613;SDS011;17381;51.690;5.270;2023-05-10T11:00:39;9.38;;;6.30;;
30613;SDS011;17381;51.690;5.270;2023-05-10T11:03:23;9.50;;;6.00;;
30613;SDS011;17381;51.690;5.270;2023-05-10T11:06:00;9.68;;;6.70;;
30613;SDS011;17381;51.690;5.270;2023-05-10T11:08:40;9.80;;;6.55;;
30613;SDS011;17381;51.690;5.270;2023-05-10T11:11:34;7.97;;;5.88;;
30613;SDS011;17381;51.690;5.270;2023-05-10T11:14:21;10.88;;;7.05;;
30613;SDS011;17381;51.690;5.270;2023-05-10T11:16:55;9.23;;;6.30;;
30613;SDS011;17381;51.690;5.270;2023-05-10T11:26:03;9.52;;;6.85;;
30613;SDS011;17381;51.690;5.270;2023-05-10T11:28:56;9.73;;;6.50;;
30613;SDS011;17381;51.690;5.270;2023-05-10T11:31:33;9.93;;;5.95;;
30613;SDS011;17381;51.690;5.270;2023-05-10T11:34:06;8.23;;;5.50;;
30613;SDS011;17381;51.690;5.270;2023-05-10T11:36:43;7.75;;;5.00;;
30613;SDS011;17381;51.690;5.270;2023-05-10T11:39:26;6.30;;;4.53;;
30613;SDS011;17381;51.690;5.270;2023-05-10T11:42:06;9.45;;;5.63;;
30613;SDS011;17381;51.690;5.270;2023-05-10T11:45:07;8.18;;;5.13;;
30613;SDS011;17381;51.690;5.270;2023-05-10T11:47:40;7.57;;;5.07;;
30613;SDS011;17381;51.690;5.270;2023-05-10T11:51:03;8.32;;;5.35;;
30613;SDS011;17381;51.690;5.270;2023-05-10T11:53:44;6.63;;;5.32;;
30613;SDS011;17381;51.690;5.270;2023-05-10T11:56:22;6.75;;;4.95;;
30613;SDS011;17381;51.690;5.270;2023-05-10T11:58:56;6.00;;;4.68;;
30613;SDS011;17381;51.690;5.270;2023-05-10T12:01:41;8.27;;;5.95;;
30613;SDS011;17381;51.690;5.270;2023-05-10T12:04:26;5.88;;;4.47;;
30613;SDS011;17381;51.690;5.270;2023-05-10T12:07:02;8.18;;;4.93;;
30613;SDS011;17381;51.690;5.270;2023-05-10T12:10:02;5.68;;;4.05;;
30613;SDS011;17381;51.690;5.270;2023-05-10T12:12:51;5.10;;;3.72;;
30613;SDS011;17381;51.690;5.270;2023-05-10T12:15:39;7.05;;;4.30;;
30613;SDS011;17381;51.690;5.270;2023-05-10T12:18:28;8.07;;;4.53;;
30613;SDS011;17381;51.690;5.270;2023-05-10T12:21:06;7.23;;;4.43;;
30613;SDS011;17381;51.690;5.270;2023-05-10T12:23:58;5.15;;;3.67;;
30613;SDS011;17381;51.690;5.270;2023-05-10T12:26:45;6.22;;;4.00;;
30613;SDS011;17381;51.690;5.270;2023-05-10T12:29:43;6.28;;;3.25;;
30613;SDS011;17381;51.690;5.270;2023-05-10T12:32:36;5.70;;;2.97;;
30613;SDS011;17381;51.690;5.270;2023-05-10T12:42:38;4.72;;;3.03;;
30613;SDS011;17381;51.690;5.270;2023-05-10T12:45:28;4.95;;;3.00;;
30613;SDS011;17381;51.690;5.270;2023-05-10T12:48:09;6.35;;;3.10;;
30613;SDS011;17381;51.690;5.270;2023-05-10T12:50:38;5.60;;;2.85;;
30613;SDS011;17381;51.690;5.270;2023-05-10T12:53:04;4.53;;;2.67;;
30613;SDS011;17381;51.690;5.270;2023-05-10T12:55:55;5.35;;;2.47;;
30613;SDS011;17381;51.690;5.270;2023-05-10T12:59:12;4.25;;;2.67;;
30613;SDS011;17381;51.690;5.270;2023-05-10T13:02:21;6.28;;;3.10;;
30613;SDS011;17381;51.690;5.270;2023-05-10T13:05:00;4.25;;;2.80;;
30613;SDS011;17381;51.690;5.270;2023-05-10T13:07:55;5.40;;;3.30;;
30613;SDS011;17381;51.690;5.270;2023-05-10T13:10:45;6.35;;;4.18;;
30613;SDS011;17381;51.690;5.270;2023-05-10T13:13:40;9.23;;;4.38;;
30613;SDS011;17381;51.690;5.270;2023-05-10T13:16:12;6.07;;;3.97;;
30613;SDS011;17381;51.690;5.270;2023-05-10T13:18:58;6.40;;;3.92;;
30613;SDS011;17381;51.690;5.270;2023-05-10T13:21:25;7.55;;;5.82;;
30613;SDS011;17381;51.690;5.270;2023-05-10T13:23:59;9.25;;;6.07;;
30613;SDS011;17381;51.690;5.270;2023-05-10T13:27:18;8.48;;;5.85;;
30613;SDS011;17381;51.690;5.270;2023-05-10T13:29:56;9.07;;;6.47;;
30613;SDS011;17381;51.690;5.270;2023-05-10T13:32:32;10.07;;;5.80;;
30613;SDS011;17381;51.690;5.270;2023-05-10T13:35:34;8.95;;;6.75;;
30613;SDS011;17381;51.690;5.270;2023-05-10T13:38:28;9.75;;;7.25;;
30613;SDS011;17381;51.690;5.270;2023-05-10T13:41:10;9.65;;;7.95;;
30613;SDS011;17381;51.690;5.270;2023-05-10T13:44:00;7.30;;;6.23;;
30613;SDS011;17381;51.690;5.270;2023-05-10T13:46:53;7.60;;;6.35;;
30613;SDS011;17381;51.690;5.270;2023-05-10T13:50:02;8.47;;;7.10;;
30613;SDS011;17381;51.690;5.270;2023-05-10T13:52:47;7.72;;;6.30;;
30613;SDS011;17381;51.690;5.270;2023-05-10T13:56:07;9.60;;;7.78;;
30613;SDS011;17381;51.690;5.270;2023-05-10T13:58:59;4.30;;;3.58;;
30613;SDS011;17381;51.690;5.270;2023-05-10T14:01:50;12.52;;;10.68;;
30613;SDS011;17381;51.690;5.270;2023-05-10T14:04:18;10.93;;;9.35;;
30613;SDS011;17381;51.690;5.270;2023-05-10T14:07:15;10.75;;;9.23;;
30613;SDS011;17381;51.690;5.270;2023-05-10T14:09:45;10.95;;;8.88;;
30613;SDS011;17381;51.690;5.270;2023-05-10T14:12:22;9.65;;;8.65;;
30613;SDS011;17381;51.690;5.270;2023-05-10T14:14:57;12.60;;;10.02;;
30613;SDS011;17381;51.690;5.270;2023-05-10T14:17:27;12.38;;;9.75;;
30613;SDS011;17381;51.690;5.270;2023-05-10T14:20:02;11.50;;;9.55;;
30613;SDS011;17381;51.690;5.270;2023-05-10T14:25:53;10.38;;;8.45;;
30613;SDS011;17381;51.690;5.270;2023-05-10T14:28:35;9.90;;;8.15;;
30613;SDS011;17381;51.690;5.270;2023-05-10T14:38:35;11.15;;;8.93;;
30613;SDS011;17381;51.690;5.270;2023-05-10T14:41:26;9.60;;;7.90;;
30613;SDS011;17381;51.690;5.270;2023-05-10T14:43:56;11.23;;;9.48;;
30613;SDS011;17381;51.690;5.270;2023-05-10T14:46:32;11.65;;;9.02;;
30613;SDS011;17381;51.690;5.270;2023-05-10T14:56:08;9.35;;;6.70;;
30613;SDS011;17381;51.690;5.270;2023-05-10T14:59:23;7.53;;;5.35;;
30613;SDS011;17381;51.690;5.270;2023-05-10T15:02:52;6.07;;;4.68;;
30613;SDS011;17381;51.690;5.270;2023-05-10T15:05:32;7.35;;;5.35;;
30613;SDS011;17381;51.690;5.270;2023-05-10T15:08:43;7.45;;;5.03;;
30613;SDS011;17381;51.690;5.270;2023-05-10T15:11:31;6.78;;;5.00;;
30613;SDS011;17381;51.690;5.270;2023-05-10T15:14:16;1.33;;;0.82;;
30613;SDS011;17381;51.690;5.270;2023-05-10T15:17:37;1.40;;;0.73;;
30613;SDS011;17381;51.690;5.270;2023-05-10T15:20:22;1.50;;;0.80;;
30613;SDS011;17381;51.690;5.270;2023-05-10T15:23:28;0.98;;;0.47;;
30613;SDS011;17381;51.690;5.270;2023-05-10T15:26:22;0.90;;;0.50;;
30613;SDS011;17381;51.690;5.270;2023-05-10T15:29:14;0.90;;;0.60;;
30613;SDS011;17381;51.690;5.270;2023-05-10T15:32:12;1.02;;;0.57;;
30613;SDS011;17381;51.690;5.270;2023-05-10T15:34:54;0.75;;;0.45;;
30613;SDS011;17381;51.690;5.270;2023-05-10T15:37:35;0.80;;;0.60;;
30613;SDS011;17381;51.690;5.270;2023-05-10T15:40:08;1.05;;;0.60;;
30613;SDS011;17381;51.690;5.270;2023-05-10T15:46:18;1.15;;;0.60;;
30613;SDS011;17381;51.690;5.270;2023-05-10T15:49:11;0.50;;;0.40;;
30613;SDS011;17381;51.690;5.270;2023-05-10T15:51:37;1.17;;;0.60;;
30613;SDS011;17381;51.690;5.270;2023-05-10T15:54:03;0.85;;;0.50;;
30613;SDS011;17381;51.690;5.270;2023-05-10T15:56:41;1.02;;;0.63;;
30613;SDS011;17381;51.690;5.270;2023-05-10T15:59:16;2.00;;;1.10;;
30613;SDS011;17381;51.690;5.270;2023-05-10T16:02:34;2.53;;;1.23;;
30613;SDS011;17381;51.690;5.270;2023-05-10T16:08:48;1.83;;;1.25;;
30613;SDS011;17381;51.690;5.270;2023-05-10T16:11:59;1.60;;;1.02;;
30613;SDS011;17381;51.690;5.270;2023-05-10T16:15:24;2.10;;;1.40;;
30613;SDS011;17381;51.690;5.270;2023-05-10T16:17:54;1.90;;;1.10;;
30613;SDS011;17381;51.690;5.270;2023-05-10T16:40:38;1.77;;;0.98;;
30613;SDS011;17381;51.690;5.270;2023-05-10T16:47:28;1.90;;;1.15;;
30613;SDS011;17381;51.690;5.270;2023-05-10T16:50:32;2.38;;;1.52;;
30613;SDS011;17381;51.690;5.270;2023-05-10T16:57:11;2.33;;;1.55;;
30613;SDS011;17381;51.690;5.270;2023-05-10T17:00:12;2.05;;;1.30;;
30613;SDS011;17381;51.690;5.270;2023-05-10T17:03:31;3.00;;;1.80;;
30613;SDS011;17381;51.690;5.270;2023-05-10T17:06:30;2.95;;;1.80;;
30613;SDS011;17381;51.690;5.270;2023-05-10T17:08:57;3.35;;;1.50;;
30613;SDS011;17381;51.690;5.270;2023-05-10T17:11:30;2.95;;;1.55;;
30613;SDS011;17381;51.690;5.270;2023-05-10T17:14:10;2.42;;;1.45;;
30613;SDS011;17381;51.690;5.270;2023-05-10T17:16:47;3.10;;;1.40;;
30613;SDS011;17381;51.690;5.270;2023-05-10T17:19:29;2.15;;;1.20;;
30613;SDS011;17381;51.690;5.270;2023-05-10T17:22:09;3.00;;;1.42;;
30613;SDS011;17381;51.690;5.270;2023-05-10T17:25:08;2.05;;;1.15;;
30613;SDS011;17381;51.690;5.270;2023-05-10T17:27:36;2.25;;;1.27;;
30613;SDS011;17381;51.690;5.270;2023-05-10T17:33:21;1.95;;;1.20;;
30613;SDS011;17381;51.690;5.270;2023-05-10T17:36:13;2.45;;;1.27;;
30613;SDS011;17381;51.690;5.270;2023-05-10T17:39:24;2.08;;;1.23;;
30613;SDS011;17381;51.690;5.270;2023-05-10T18:07:24;8.15;;;5.43;;
30613;SDS011;17381;51.690;5.270;2023-05-10T18:10:01;7.57;;;5.65;;
30613;SDS011;17381;51.690;5.270;2023-05-10T18:12:30;7.43;;;5.40;;
30613;SDS011;17381;51.690;5.270;2023-05-10T18:15:05;7.95;;;5.35;;
30613;SDS011;17381;51.690;5.270;2023-05-10T18:17:38;8.60;;;5.32;;
30613;SDS011;17381;51.690;5.270;2023-05-10T18:20:17;6.68;;;4.35;;
30613;SDS011;17381;51.690;5.270;2023-05-10T18:26:02;9.75;;;5.60;;
30613;SDS011;17381;51.690;5.270;2023-05-10T18:28:55;8.65;;;5.93;;
30613;SDS011;17381;51.690;5.270;2023-05-10T18:31:36;8.55;;;6.72;;
30613;SDS011;17381;51.690;5.270;2023-05-10T18:34:15;8.40;;;5.57;;
30613;SDS011;17381;51.690;5.270;2023-05-10T18:39:18;8.40;;;6.20;;
30613;SDS011;17381;51.690;5.270;2023-05-10T18:41:50;8.15;;;6.22;;
30613;SDS011;17381;51.690;5.270;2023-05-10T18:44:18;7.93;;;6.53;;
30613;SDS011;17381;51.690;5.270;2023-05-10T18:46:51;8.65;;;6.10;;
30613;SDS011;17381;51.690;5.270;2023-05-10T18:49:21;8.82;;;6.72;;
30613;SDS011;17381;51.690;5.270;2023-05-10T18:51:56;8.77;;;6.45;;
30613;SDS011;17381;51.690;5.270;2023-05-10T18:54:22;7.82;;;6.22;;
30613;SDS011;17381;51.690;5.270;2023-05-10T18:56:57;7.40;;;5.95;;
30613;SDS011;17381;51.690;5.270;2023-05-10T18:59:42;9.20;;;7.18;;
30613;SDS011;17381;51.690;5.270;2023-05-10T19:02:31;10.85;;;6.82;;
30613;SDS011;17381;51.690;5.270;2023-05-10T19:05:00;7.55;;;5.88;;
30613;SDS011;17381;51.690;5.270;2023-05-10T19:07:43;9.95;;;6.40;;
30613;SDS011;17381;51.690;5.270;2023-05-10T19:10:23;8.32;;;5.75;;
30613;SDS011;17381;51.690;5.270;2023-05-10T19:13:20;7.30;;;5.70;;
30613;SDS011;17381;51.690;5.270;2023-05-10T19:18:33;7.82;;;5.50;;
30613;SDS011;17381;51.690;5.270;2023-05-10T19:21:02;7.25;;;5.35;;
30613;SDS011;17381;51.690;5.270;2023-05-10T19:23:43;9.02;;;5.85;;
30613;SDS011;17381;51.690;5.270;2023-05-10T19:26:19;8.30;;;5.22;;
30613;SDS011;17381;51.690;5.270;2023-05-10T19:28:53;6.47;;;4.80;;